地図

経路データ

SID SEASON NUMBER BASIN SUBBASIN NAME ISO_TIME NATURE LAT LON WMO_WIND WMO_PRES WMO_AGENCY TRACK_TYPE DIST2LAND LANDFALL IFLAG USA_AGENCY USA_ATCF_ID USA_LAT USA_LON USA_RECORD USA_STATUS USA_WIND USA_PRES USA_SSHS USA_R34_NE USA_R34_SE USA_R34_SW USA_R34_NW USA_R50_NE USA_R50_SE USA_R50_SW USA_R50_NW USA_R64_NE USA_R64_SE USA_R64_SW USA_R64_NW USA_POCI USA_ROCI USA_RMW USA_EYE TOKYO_LAT TOKYO_LON TOKYO_GRADE TOKYO_WIND TOKYO_PRES TOKYO_R50_DIR TOKYO_R50_LONG TOKYO_R50_SHORT TOKYO_R30_DIR TOKYO_R30_LONG TOKYO_R30_SHORT TOKYO_LAND CMA_LAT CMA_LON CMA_CAT CMA_WIND CMA_PRES HKO_LAT HKO_LON HKO_CAT HKO_WIND HKO_PRES NEWDELHI_LAT NEWDELHI_LON NEWDELHI_GRADE NEWDELHI_WIND NEWDELHI_PRES NEWDELHI_CI NEWDELHI_DP NEWDELHI_POCI REUNION_LAT REUNION_LON REUNION_TYPE REUNION_WIND REUNION_PRES REUNION_TNUM REUNION_CI REUNION_RMW REUNION_R34_NE REUNION_R34_SE REUNION_R34_SW REUNION_R34_NW REUNION_R50_NE REUNION_R50_SE REUNION_R50_SW REUNION_R50_NW REUNION_R64_NE REUNION_R64_SE REUNION_R64_SW REUNION_R64_NW BOM_LAT BOM_LON BOM_TYPE BOM_WIND BOM_PRES BOM_TNUM BOM_CI BOM_RMW BOM_R34_NE BOM_R34_SE BOM_R34_SW BOM_R34_NW BOM_R50_NE BOM_R50_SE BOM_R50_SW BOM_R50_NW BOM_R64_NE BOM_R64_SE BOM_R64_SW BOM_R64_NW BOM_ROCI BOM_POCI BOM_EYE BOM_POS_METHOD BOM_PRES_METHOD NADI_LAT NADI_LON NADI_CAT NADI_WIND NADI_PRES WELLINGTON_LAT WELLINGTON_LON WELLINGTON_WIND WELLINGTON_PRES DS824_LAT DS824_LON DS824_STAGE DS824_WIND DS824_PRES TD9636_LAT TD9636_LON TD9636_STAGE TD9636_WIND TD9636_PRES TD9635_LAT TD9635_LON TD9635_WIND TD9635_PRES TD9635_ROCI NEUMANN_LAT NEUMANN_LON NEUMANN_CLASS NEUMANN_WIND NEUMANN_PRES MLC_LAT MLC_LON MLC_CLASS MLC_WIND MLC_PRES USA_GUST BOM_GUST BOM_GUST_PER REUNION_GUST REUNION_GUST_PER USA_SEAHGT USA_SEARAD_NE USA_SEARAD_SE USA_SEARAD_SW USA_SEARAD_NW STORM_SPEED STORM_DIR
1953092S13054 1953 18 SI MM NOT_NAMED 1953-04-01 18:00:00 TS -12.6000 53.6000 main 400 373 O________OO___ jtwc_sh SH191953 -12.6000 53.6000 -1 -12.6000 53.6000 TC -12.6000 53.6000 7 25 178
1953092S13054 1953 18 SI MM NOT_NAMED 1953-04-01 21:00:00 TS -13.8229 53.6551 main 378 345 P________PP___ SH191953 -13.8726 53.6672 -1 -13.8726 53.6672 TC -13.7234 53.6308 7 23 178
1953092S13054 1953 18 SI MM NOT_NAMED 1953-04-02 00:00:00 TS -14.9293 53.6832 main 345 343 O________OP___ jtwc_sh SH191953 -15.0000 53.7000 -1 -15.0000 53.7000 TC 25 -14.7878 53.6495 7 20 180
1953092S13054 1953 18 SI MM NOT_NAMED 1953-04-02 03:00:00 TS -15.8243 53.6629 main 345 338 P________PP___ SH191953 -15.8699 53.6726 -1 -15.8699 53.6726 TC 25 -15.7331 53.6435 7 16 183
1953092S13054 1953 18 SI MM NOT_NAMED 1953-04-02 06:00:00 TS -16.5000 53.6000 main 353 353 O________OO___ jtwc_sh SH191953 -16.5000 53.6000 -1 -16.5000 53.6000 TC 25 -16.5000 53.6000 1 12 187
1953092S13054 1953 18 SI MM NOT_NAMED 1953-04-02 09:00:00 TS -16.9904 53.5180 main 366 365 P________PP___ SH191953 -16.9599 53.5224 -1 -16.9599 53.5224 TC 25 -17.0512 53.5093 1 9 193
1953092S13054 1953 18 SI MM NOT_NAMED 1953-04-02 12:00:00 TS -17.3457 53.3916 main 370 365 O________OP___ jtwc_sh SH191953 -17.3000 53.4000 -1 -17.3000 53.4000 TC 25 -17.4370 53.3748 1 8 203
1953092S13054 1953 18 SI MM NOT_NAMED 1953-04-02 15:00:00 TS -17.6814 53.2159 main 371 361 P________PP___ SH191953 -17.6575 53.2225 -1 -17.6575 53.2225 TC 25 -17.7293 53.2028 1 8 210
1953092S13054 1953 18 SI MM NOT_NAMED 1953-04-02 18:00:00 TS -18.0000 53.0000 main 365 353 O________OO___ jtwc_sh SH191953 -18.0000 53.0000 -1 -18.0000 53.0000 TC 25 -18.0000 53.0000 1 8 213
1953092S13054 1953 18 SI MM NOT_NAMED 1953-04-02 21:00:00 TS -18.3565 52.7579 main 357 331 P________PP___ SH191953 -18.3500 52.7574 -1 -18.3500 52.7574 TC 25 -18.3696 52.7588 1 9 214
1953092S13054 1953 18 SI MM NOT_NAMED 1953-04-03 00:00:00 TS -18.7101 52.4977 main 331 308 O________OP___ jtwc_sh SH191953 -18.7000 52.5000 -1 -18.7000 52.5000 TC 25 -18.7303 52.4930 1 9 215
1953092S13054 1953 18 SI MM NOT_NAMED 1953-04-03 03:00:00 TS -19.0686 52.2336 main 311 300 P________PP___ SH191953 -19.0650 52.2350 -1 -19.0650 52.2350 TC 25 -19.0758 52.2307 1 8 214
1953092S13054 1953 18 SI MM NOT_NAMED 1953-04-03 06:00:00 TS -19.4000 52.0000 main 304 291 O________OO___ jtwc_sh SH191953 -19.4000 52.0000 -1 -19.4000 52.0000 TC 25 -19.4000 52.0000 1 7 212
1953092S13054 1953 18 SI MM NOT_NAMED 1953-04-03 09:00:00 TS -19.6704 51.8297 main 293 286 P________PP___ SH191953 -19.6575 51.8273 -1 -19.6575 51.8273 TC 25 -19.6964 51.8345 1 6 208
1953092S13054 1953 18 SI MM NOT_NAMED 1953-04-03 12:00:00 TS -19.9241 51.7015 main 290 289 O________OP___ jtwc_sh SH191953 -19.9000 51.7000 -1 -19.9000 51.7000 TC 25 -19.9723 51.7044 1 6 202
1953092S13054 1953 18 SI MM NOT_NAMED 1953-04-03 15:00:00 TS -20.2123 51.5940 main 293 285 P________PP___ SH191953 -20.2000 51.5925 -1 -20.2000 51.5925 TC 25 -20.2370 51.5971 1 6 198
1953092S13054 1953 18 SI MM NOT_NAMED 1953-04-03 18:00:00 TS -20.5000 51.5000 main 287 279 O________OO___ jtwc_sh SH191953 -20.5000 51.5000 -1 -20.5000 51.5000 TC 25 -20.5000 51.5000 1 6 199
1953092S13054 1953 18 SI MM NOT_NAMED 1953-04-03 21:00:00 TS -20.7610 51.3962 main 285 279 P________PP___ SH191953 -20.7500 51.3999 -1 -20.7500 51.3999 TC 25 -20.7831 51.3887 1 6 200
1953092S13054 1953 18 SI MM NOT_NAMED 1953-04-04 00:00:00 TS -21.0217 51.2950 main 283 283 O________OP___ jtwc_sh SH191953 -21.0000 51.3000 -1 -21.0000 51.3000 TC 25 -21.0650 51.2849 1 6 199
1953092S13054 1953 18 SI MM NOT_NAMED 1953-04-04 03:00:00 TS -21.3131 51.1962 main 287 285 P________PP___ SH191953 -21.3000 51.2000 -1 -21.3000 51.2000 TC 25 -21.3394 51.1887 1 6 198
1953092S13054 1953 18 SI MM NOT_NAMED 1953-04-04 06:00:00 TS -21.6000 51.1000 main 287 280 O________OO___ jtwc_sh SH191953 -21.6000 51.1000 -1 -21.6000 51.1000 TC 25 -21.6000 51.1000 1 6 199
1953092S13054 1953 18 SI MM NOT_NAMED 1953-04-04 09:00:00 TS -21.8551 50.9995 main 284 276 P________PP___ SH191953 -21.8650 50.9925 -1 -21.8650 50.9925 TC 25 -21.8353 51.0136 1 5 200
1953092S13054 1953 18 SI MM NOT_NAMED 1953-04-04 12:00:00 TS -22.0858 50.9116 main 279 279 O________OP___ jtwc_sh SH191953 -22.1000 50.9000 -1 -22.1000 50.9000 TC 25 -22.0575 50.9348 1 5 197
1953092S13054 1953 18 SI MM NOT_NAMED 1953-04-04 15:00:00 TS -22.2920 50.8495 main 273 273 P________PP___ SH191953 -22.3000 50.8424 -1 -22.3000 50.8424 TC 25 -22.2759 50.8636 1 4 195
1953092S13054 1953 18 SI MM NOT_NAMED 1953-04-04 18:00:00 TS -22.5000 50.8000 main 278 278 O________OO___ jtwc_sh SH191953 -22.5000 50.8000 -1 -22.5000 50.8000 TC 25 -22.5000 50.8000 1 5 193
1953092S13054 1953 18 SI MM NOT_NAMED 1953-04-04 21:00:00 TS -22.7406 50.7478 main 276 276 P________PP___ SH191953 -22.7425 50.7500 -1 -22.7425 50.7500 TC 25 -22.7369 50.7435 1 5 191
1953092S13054 1953 18 SI MM NOT_NAMED 1953-04-05 00:00:00 TS -22.9950 50.6976 main 289 289 O________OP___ jtwc_sh SH191953 -23.0000 50.7000 -1 -23.0000 50.7000 TC 25 -22.9850 50.6927 1 5 190
1953092S13054 1953 18 SI MM NOT_NAMED 1953-04-05 03:00:00 TS -23.2486 50.6485 main 287 287 P________PP___ SH191953 -23.2525 50.6500 -1 -23.2525 50.6500 TC 25 -23.2406 50.6455 1 5 190
1953092S13054 1953 18 SI MM NOT_NAMED 1953-04-05 06:00:00 TS -23.5000 50.6000 main 293 O________OO___ jtwc_sh SH191953 -23.5000 50.6000 -1 -23.5000 50.6000 TC 25 -23.5000 50.6000 1 5 187

IBTrACS Databaseについて

本データベースは、米国NOAAが公開する1842年以降の世界の熱帯低気圧のベストトラックデータアーカイブInternational Best Track Archive for Climate Stewardship (IBTrACS)を、ウェブで閲覧しやすい形式に変換したものです。

最終更新日:2021-12-06